ADDS METAR Data INFO
IDs: Format: Raw Decoded Include TAF

Data at: 0202 UTC 21 Apr 2018

KPEQ 210155Z AUTO 29017G21KT 10SM CLR 26/M12 A2982 RMK AO2 T02611118
KPEQ 210135Z AUTO 31019G24KT 10SM CLR 27/M11 A2980 RMK AO2 T02691107
KPEQ 210115Z AUTO 29017G25KT 5SM HZ CLR 28/M10 A2978 RMK AO2 T02771099
KPEQ 210055Z AUTO 30016G21KT 10SM CLR 29/M04 A2976 RMK AO2 T02901042
KPEQ 210035Z AUTO 32010G21KT 10SM CLR 30/02 A2975 RMK AO2 T02950020
KPEQ 210015Z AUTO 34005G14KT 10SM CLR 30/03 A2973 RMK AO2 T03040026
KPEQ 202355Z AUTO 05008G14KT 020V080 10SM CLR 30/08 A2972 RMK AO2 T03030075 10339 20279
KPEQ 202335Z AUTO 35012G15KT 320V020 10SM CLR 32/05 A2970 RMK AO2 T03160047
KPEQ 202315Z AUTO 33013G18KT 10SM CLR 32/06 A2969 RMK AO2 T03170055
KPEQ 202255Z AUTO 21010G18KT 10SM CLR 32/07 A2969 RMK AO2 LTG DSNT N T03200072
KPEQ 202235Z AUTO 20015G21KT 10SM SCT110 32/08 A2966 RMK AO2 T03210075
KPEQ 202215Z AUTO 17014G24KT 10SM SCT110 32/08 A2966 RMK AO2 T03230084
KPEQ 202155Z AUTO 16017G26KT 10SM SCT110 33/08 A2967 RMK AO2 T03250082
KPEQ 202135Z AUTO 18017G34KT 10SM SCT110 33/09 A2968 RMK AO2 T03300086
KPEQ 202115Z AUTO 16017G30KT 10SM SCT110 32/10 A2969 RMK AO2 T03190095
KPEQ 202055Z AUTO 13020G28KT 10SM BKN110 31/10 A2970 RMK AO2 LTG DSNT N T03120096
KPEQ 202035Z AUTO 15019G29KT 10SM SCT110 32/10 A2972 RMK AO2 LTG DSNT N T03160099
KPEQ 202015Z AUTO 15019G29KT 10SM CLR 32/10 A2973 RMK AO2 T03200102
KPEQ 201955Z AUTO 14018G28KT 10SM CLR 33/10 A2975 RMK AO2 T03250100
KPEQ 201935Z AUTO 13022G31KT 7SM CLR 32/10 A2976 RMK AO2 T03170101
KPEQ 201915Z AUTO 13026G32KT 7SM CLR 31/10 A2977 RMK AO2 T03120101
KPEQ 201855Z AUTO 14023G31KT 7SM CLR 31/10 A2979 RMK AO2 LTG DSNT N T03060100
KPEQ 201835Z AUTO 13024G30KT 7SM CLR 30/10 A2980 RMK AO2 T03010097
KPEQ 201815Z AUTO 11026G34KT 10SM SCT075 29/09 A2981 RMK AO2 T02870091
KPEQ 201755Z AUTO 10026G33KT 10SM SCT075 28/09 A2984 RMK AO2 T02770087 10277 20145
KPEQ 201735Z AUTO 09023G30KT 10SM CLR 27/09 A2987 RMK AO2 T02680087
KPEQ 201715Z AUTO 10022G27KT 10SM CLR 26/09 A2988 RMK AO2 T02600086
KPEQ 201655Z AUTO 10021G27KT 10SM CLR 25/08 A2989 RMK AO2 T02520084
KPEQ 201635Z AUTO 10023G30KT 10SM CLR 23/08 A2990 RMK AO2 LTG DSNT N T02340081
KPEQ 201615Z AUTO 11025G29KT 10SM CLR 23/08 A2991 RMK AO2 T02310080
KPEQ 201555Z AUTO 11023G29KT 10SM CLR 22/08 A2991 RMK AO2 T02190076
KPEQ 201535Z AUTO 11022G28KT 10SM CLR 21/07 A2992 RMK AO2 T02110072
KPEQ 201515Z AUTO 11020G25KT 10SM CLR 20/07 A2993 RMK AO2 T02000067
KPEQ 201455Z AUTO 11021G30KT 10SM CLR 19/06 A2994 RMK AO2 T01890062
KPEQ 201435Z AUTO 11020G26KT 10SM CLR 18/06 A2994 RMK AO2 T01810059
KPEQ 201415Z AUTO 11023G28KT 10SM CLR 17/06 A2995 RMK AO2 T01720055
KPEQ 201355Z AUTO 11023G28KT 10SM CLR 16/05 A2995 RMK AO2 T01630047
KPEQ 201335Z AUTO 11022G31KT 10SM CLR 16/04 A2995 RMK AO2 T01550042
KPEQ 201315Z AUTO 11020G26KT 10SM CLR 15/04 A2996 RMK AO2 T01500040
KPEQ 201255Z AUTO 10019G25KT 10SM CLR 15/04 A2997 RMK AO2 T01460037
KPEQ 201235Z AUTO 11017G22KT 10SM CLR 15/04 A2998 RMK AO2 T01450036
KPEQ 201215Z AUTO 11017G24KT 10SM CLR 15/04 A2998 RMK AO2 T01460035
KPEQ 201155Z AUTO 12020G27KT 10SM CLR 15/03 A2997 RMK AO2 T01480034 10178 20148
KPEQ 201135Z AUTO 11021G26KT 10SM CLR 15/03 A2997 RMK AO2 T01500032
KPEQ 201115Z AUTO 11022G28KT 10SM CLR 15/03 A2996 RMK AO2 T01500030
KPEQ 201055Z AUTO 11019G25KT 10SM CLR 15/03 A2996 RMK AO2 T01520030
KPEQ 201035Z AUTO 11018G22KT 10SM CLR 15/03 A2996 RMK AO2 T01520028
KPEQ 201015Z AUTO 11017G23KT 10SM CLR 16/03 A2997 RMK AO2 T01560028
KPEQ 200955Z AUTO 11019G25KT 10SM CLR 16/03 A2998 RMK AO2 T01570027
KPEQ 200935Z AUTO 11021G25KT 10SM CLR 16/03 A2997 RMK AO2 T01590025
KPEQ 200915Z AUTO 11017KT 10SM CLR 16/02 A2999 RMK AO2 T01590023
KPEQ 200855Z AUTO 11015G21KT 10SM CLR 16/02 A2999 RMK AO2 T01600022
KPEQ 200835Z AUTO 10015KT 10SM CLR 16/02 A3000 RMK AO2 T01620021
KPEQ 200815Z AUTO 10015G20KT 10SM CLR 17/02 A3000 RMK AO2 T01660023
KPEQ 200755Z AUTO 11017G22KT 10SM CLR 17/02 A3001 RMK AO2 T01670022
KPEQ 200735Z AUTO 11017G23KT 10SM CLR 17/02 A3002 RMK AO2 T01700022
KPEQ 200715Z AUTO 11016G22KT 10SM CLR 17/02 A3004 RMK AO2 T01720022
KPEQ 200655Z AUTO 11013G20KT 10SM CLR 17/03 A3005 RMK AO2 T01730026
KPEQ 200635Z AUTO 11013KT 10SM CLR 18/03 A3006 RMK AO2 T01750034
KPEQ 200615Z AUTO 12016G20KT 10SM CLR 18/04 A3005 RMK AO2 T01770040
KPEQ 200555Z AUTO 11014KT 10SM CLR 18/04 A3005 RMK AO2 T01770035 10240 20175 402610101
KPEQ 200535Z AUTO 11012KT 10SM CLR 18/02 A3007 RMK AO2 T01750024
KPEQ 200515Z AUTO 11011KT 10SM CLR 18/02 A3009 RMK AO2 T01790022
KPEQ 200455Z AUTO 11013KT 10SM CLR 18/02 A3010 RMK AO2 T01830024
KPEQ 200435Z AUTO 11012G20KT 10SM CLR 19/03 A3010 RMK AO2 T01870025
KPEQ 200415Z AUTO 12014G17KT 10SM CLR 19/03 A3010 RMK AO2 T01850026
KPEQ 200355Z AUTO 12014KT 10SM CLR 19/03 A3010 RMK AO2 T01880027
KPEQ 200335Z AUTO 11014G17KT 10SM CLR 19/02 A3010 RMK AO2 T01910019
KPEQ 200315Z AUTO 12014G19KT 10SM CLR 19/01 A3010 RMK AO2 T01940010
KPEQ 200255Z AUTO 12013G19KT 10SM CLR 20/00 A3009 RMK AO2 T01960001
KPEQ 200235Z AUTO 12015KT 10SM CLR 20/00 A3009 RMK AO2 T01991001
KPEQ 200215Z AUTO 12015KT 10SM CLR 20/00 A3009 RMK AO2 T02010000
KPEQ 200155Z AUTO 12017G25KT 10SM CLR 21/00 A3008 RMK AO2 T02070004
KPEQ 200135Z AUTO 12019G27KT 10SM CLR 21/01 A3008 RMK AO2 T02140014
KPEQ 200115Z AUTO 13020G29KT 10SM CLR 22/02 A3008 RMK AO2 T02200023
KPEQ 200055Z AUTO 12022G29KT 10SM CLR 23/03 A3007 RMK AO2 T02250030
KPEQ 200035Z AUTO 12022G26KT 10SM CLR 23/03 A3007 RMK AO2 T02290032
KPEQ 200015Z AUTO 10022G27KT 10SM CLR 24/02 A3007 RMK AO2 T02370015
KPEQ 192355Z AUTO 11021G29KT 10SM CLR 24/01 A3008 RMK AO2 T02400014 10261 20233
KPEQ 192335Z AUTO 12021G30KT 10SM CLR 25/01 A3007 RMK AO2 T02450012
KPEQ 192315Z AUTO 10023G30KT 10SM CLR 25/00 A3007 RMK AO2 T02510000
KPEQ 192255Z AUTO 10019G29KT 10SM CLR 25/M01 A3009 RMK AO2 T02531007
KPEQ 192235Z AUTO 11021G29KT 10SM CLR 26/00 A3009 RMK AO2 T02550000
KPEQ 192215Z AUTO 11020G29KT 10SM CLR 26/00 A3009 RMK AO2 T02591005
KPEQ 192155Z AUTO 10021G28KT 10SM CLR 26/M01 A3011 RMK AO2 T02571009
KPEQ 192135Z AUTO 12020G29KT 10SM CLR 26/M01 A3012 RMK AO2 T02581006
KPEQ 192115Z AUTO 12023G30KT 10SM CLR 26/M02 A3012 RMK AO2 T02591018
KPEQ 192055Z AUTO 10018G30KT 10SM CLR 26/M02 A3014 RMK AO2 T02601018
KPEQ 192035Z AUTO 11018G28KT 10SM CLR 26/M02 A3015 RMK AO2 T02571024
KPEQ 192015Z AUTO 11022G27KT 10SM CLR 26/M02 A3016 RMK AO2 T02601019
KPEQ 191955Z AUTO 10021G31KT 10SM CLR 26/M02 A3017 RMK AO2 T02561018
KPEQ 191935Z AUTO 13020G27KT 10SM CLR 25/M02 A3018 RMK AO2 T02531017
KPEQ 191915Z AUTO 10021G25KT 10SM CLR 26/M03 A3020 RMK AO2 T02551028
KPEQ 191855Z AUTO 10019G25KT 10SM CLR 25/M03 A3022 RMK AO2 T02481029
KPEQ 191835Z AUTO 12021G28KT 10SM CLR 25/M02 A3023 RMK AO2 T02461024
KPEQ 191815Z AUTO 13023G32KT 10SM CLR 24/M04 A3024 RMK AO2 T02361040
KPEQ 191755Z AUTO 12017G26KT 10SM CLR 23/M04 A3025 RMK AO2 T02321038 10233 20125
KPEQ 191735Z AUTO 11020G27KT 10SM CLR 23/M04 A3026 RMK AO2 T02281038
KPEQ 191715Z AUTO 11020G27KT 10SM CLR 23/M04 A3026 RMK AO2 T02281041
KPEQ 191655Z AUTO 10020G25KT 10SM CLR 22/M04 A3027 RMK AO2 T02211044
KPEQ 191635Z AUTO 11021G27KT 10SM CLR 22/M05 A3027 RMK AO2 T02191048
KPEQ 191615Z AUTO 12021KT 10SM CLR 21/M05 A3027 RMK AO2 T02071054
KPEQ 191555Z AUTO 10016G22KT 10SM CLR 20/M06 A3028 RMK AO2 T01961058
KPEQ 191535Z AUTO 10019G24KT 10SM CLR 19/M06 A3028 RMK AO2 T01901059
KPEQ 191515Z AUTO 10014KT 10SM CLR 19/M05 A3028 RMK AO2 T01861054
KPEQ 191455Z AUTO 11015KT 10SM CLR 18/M05 A3029 RMK AO2 T01831049
KPEQ 191435Z AUTO 10012KT 10SM CLR 17/M05 A3028 RMK AO2 T01691048
KPEQ 191415Z AUTO 09010KT 10SM SCT043 16/M05 A3028 RMK AO2 T01601049